Time;durP1;ratioP1;P1;durP2;ratioP2;P2;SDS_P1;SDS_P2;PMS_P1;PMS_P2;Temp;Humidity;BMP_temperature;BMP_pressure;BME280_temperature;BME280_humidity;BME280_pressure;Samples;Min_cycle;Max_cycle;Signal;HPM_P1;HPM_P2
2022/10/22 00:01:12;;;;;;;1.23;0.50;;;12.30;99.90;;;;;;5091020;28;20412;-79
2022/10/22 00:03:37;;;;;;;3.25;0.60;;;12.30;99.90;;;;;;5091782;28;20082;-80
2022/10/22 00:06:03;;;;;;;2.72;0.75;;;12.30;99.90;;;;;;5091090;28;20024;-77
2022/10/22 00:08:29;;;;;;;2.17;0.65;;;12.30;99.90;;;;;;5091449;28;20035;-79
2022/10/22 00:10:54;;;;;;;0.70;0.30;;;12.30;99.90;;;;;;5079060;28;20489;-79
2022/10/22 00:13:21;;;;;;;1.27;0.50;;;12.30;99.90;;;;;;5091035;28;20854;-80
2022/10/22 00:15:47;;;;;;;1.98;0.32;;;12.20;99.90;;;;;;5091513;28;20032;-79
2022/10/22 00:18:13;;;;;;;2.25;0.45;;;12.30;99.90;;;;;;5090281;28;20032;-79
2022/10/22 00:20:39;;;;;;;1.27;0.40;;;12.30;99.90;;;;;;5091359;28;20396;-76
2022/10/22 00:23:05;;;;;;;0.60;0.30;;;12.30;99.90;;;;;;5091101;28;20089;-76
2022/10/22 00:25:32;;;;;;;0.55;0.20;;;12.30;99.90;;;;;;5090783;28;20538;-78
2022/10/22 00:27:58;;;;;;;2.53;0.38;;;12.40;99.90;;;;;;5078522;28;20028;-79
2022/10/22 00:30:23;;;;;;;1.85;0.35;;;12.40;99.90;;;;;;5086541;28;20614;-79
2022/10/22 00:32:49;;;;;;;0.77;0.40;;;12.50;99.90;;;;;;5091270;28;20028;-79
2022/10/22 00:35:15;;;;;;;0.43;0.20;;;12.50;99.90;;;;;;5090227;28;20024;-78
2022/10/22 00:37:40;;;;;;;0.75;0.40;;;12.50;99.90;;;;;;5090462;28;20043;-79
2022/10/22 00:40:06;;;;;;;0.98;0.47;;;12.50;99.90;;;;;;5090180;28;20032;-77
2022/10/22 00:42:32;;;;;;;4.47;0.43;;;12.50;99.90;;;;;;5085564;28;20051;-77
2022/10/22 00:45:03;;;;;;;2.00;0.40;;;12.60;99.90;;;;;;5091467;28;20106;-78
2022/10/22 00:47:54;;;;;;;3.05;0.40;;;12.50;99.90;;;;;;5095033;28;20036;-79
2022/10/22 00:50:26;;;;;;;2.50;0.40;;;12.50;99.90;;;;;;5046840;28;20044;-78
2022/10/22 00:52:53;;;;;;;1.83;0.38;;;12.50;99.90;;;;;;5074202;28;20122;-78
2022/10/22 00:55:20;;;;;;;1.85;0.80;;;12.50;99.90;;;;;;5073315;28;20020;-77
2022/10/22 00:57:46;;;;;;;0.32;0.30;;;12.50;99.90;;;;;;5074317;28;20039;-78
2022/10/22 01:00:12;;;;;;;1.48;0.28;;;12.50;99.90;;;;;;5073214;28;20504;-78
2022/10/22 01:02:38;;;;;;;1.20;0.40;;;12.60;99.90;;;;;;5056075;28;20029;-78
2022/10/22 01:05:04;;;;;;;0.47;0.25;;;12.50;99.90;;;;;;5073661;28;20804;-74
2022/10/22 01:07:30;;;;;;;2.03;0.40;;;12.50;99.90;;;;;;5073343;28;20167;-76
2022/10/22 01:10:15;;;;;;;0.77;0.20;;;12.60;99.90;;;;;;5071982;28;20477;-77
2022/10/22 01:12:58;;;;;;;0.57;0.45;;;12.60;99.90;;;;;;5062920;28;20381;-78
2022/10/22 01:15:42;;;;;;;0.85;0.30;;;12.60;99.90;;;;;;5071705;28;20250;-77
2022/10/22 01:18:16;;;;;;;3.88;0.47;;;12.60;99.90;;;;;;5073606;28;20067;-76
2022/10/22 01:20:52;;;;;;;2.05;0.40;;;12.70;99.90;;;;;;5062992;28;20024;-77
2022/10/22 01:24:03;;;;;;;5.50;0.70;;;12.80;99.90;;;;;;5072803;28;20486;-77
2022/10/22 01:26:50;;;;;;;1.95;0.60;;;12.70;99.90;;;;;;5072534;28;20029;-78
2022/10/22 01:29:25;;;;;;;2.00;0.47;;;12.70;99.90;;;;;;5065348;28;20042;-78
2022/10/22 01:32:03;;;;;;;7.18;0.77;;;12.80;99.90;;;;;;5042504;28;20024;-77
2022/10/22 01:34:31;;;;;;;0.93;0.38;;;12.80;99.90;;;;;;5073146;28;20029;-76
2022/10/22 01:36:58;;;;;;;0.77;0.40;;;12.80;99.90;;;;;;5073169;28;20024;-76
2022/10/22 01:39:26;;;;;;;1.50;0.40;;;12.80;99.90;;;;;;5072586;28;20123;-76
2022/10/22 01:41:54;;;;;;;2.45;0.55;;;12.80;99.90;;;;;;5072971;28;20380;-76
2022/10/22 01:44:29;;;;;;;2.13;0.40;;;12.80;99.90;;;;;;5073032;28;20039;-76
2022/10/22 01:47:07;;;;;;;0.80;0.40;;;12.80;99.90;;;;;;5060090;28;20028;-76
2022/10/22 01:50:02;;;;;;;1.58;0.57;;;12.80;99.90;;;;;;5081374;28;20082;-76
2022/10/22 01:52:56;;;;;;;1.10;0.73;;;12.80;99.90;;;;;;5086819;28;20610;-77
2022/10/22 01:55:40;;;;;;;1.95;0.50;;;12.80;99.90;;;;;;5091126;28;20059;-77
2022/10/22 01:58:32;;;;;;;0.52;0.52;;;12.70;99.90;;;;;;5092969;28;20064;-75
2022/10/22 02:01:09;;;;;;;0.95;0.30;;;12.70;99.90;;;;;;5093085;28;20035;-76
2022/10/22 02:03:43;;;;;;;4.22;0.57;;;12.70;99.90;;;;;;5088085;28;20047;-76
2022/10/22 02:06:16;;;;;;;1.23;0.35;;;12.70;99.90;;;;;;5092360;28;20396;-75
2022/10/22 02:08:43;;;;;;;1.90;0.50;;;12.70;99.90;;;;;;5093067;28;20447;-75
2022/10/22 02:11:12;;;;;;;2.38;0.40;;;12.70;99.90;;;;;;5092097;28;20108;-74
2022/10/22 02:13:45;;;;;;;0.45;0.30;;;12.80;99.90;;;;;;5090870;28;20114;-76
2022/10/22 02:16:17;;;;;;;1.83;0.50;;;12.80;99.90;;;;;;5092162;28;20086;-73
2022/10/22 02:18:45;;;;;;;0.88;0.40;;;12.80;99.90;;;;;;5088085;28;20491;-77
2022/10/22 02:21:11;;;;;;;1.95;0.40;;;12.90;99.90;;;;;;5088906;28;20032;-76
2022/10/22 02:23:37;;;;;;;2.33;0.55;;;12.90;99.90;;;;;;5093234;28;20028;-76
2022/10/22 02:26:25;;;;;;;2.70;0.40;;;12.90;99.90;;;;;;5093015;28;20086;-77
2022/10/22 02:29:02;;;;;;;0.65;0.30;;;12.80;99.90;;;;;;5089732;28;20110;-76
2022/10/22 02:31:32;;;;;;;2.85;0.45;;;12.80;99.90;;;;;;5091467;28;20657;-76
2022/10/22 02:34:03;;;;;;;0.95;0.40;;;12.80;99.90;;;;;;5093399;28;20119;-77
2022/10/22 02:36:30;;;;;;;4.80;0.47;;;12.80;99.90;;;;;;5085424;28;20057;-76
2022/10/22 02:38:55;;;;;;;1.63;0.40;;;12.80;99.90;;;;;;5084253;28;20074;-75
2022/10/22 02:41:22;;;;;;;1.08;0.30;;;12.80;99.90;;;;;;5087121;28;20427;-75
2022/10/22 02:43:53;;;;;;;0.82;0.40;;;12.80;99.90;;;;;;5092370;28;20465;-77
2022/10/22 02:46:19;;;;;;;4.25;0.40;;;12.80;99.90;;;;;;5091374;28;20028;-76
2022/10/22 02:48:45;;;;;;;0.73;0.50;;;12.80;99.90;;;;;;5092060;28;20028;-75
2022/10/22 02:51:10;;;;;;;3.50;1.05;;;12.80;99.90;;;;;;5090670;28;20047;-76
2022/10/22 02:53:36;;;;;;;0.50;0.30;;;12.80;99.90;;;;;;5092366;28;20035;-75
2022/10/22 02:56:02;;;;;;;1.38;0.30;;;12.90;99.90;;;;;;5091546;28;20061;-76
2022/10/22 02:58:27;;;;;;;2.10;0.60;;;12.80;99.90;;;;;;5073141;28;20039;-75
2022/10/22 03:00:53;;;;;;;3.42;0.40;;;12.80;99.90;;;;;;5091325;28;20026;-75
2022/10/22 03:03:18;;;;;;;2.58;0.30;;;12.90;99.90;;;;;;5091608;28;20031;-76
2022/10/22 03:05:44;;;;;;;1.58;0.40;;;12.90;99.90;;;;;;5091578;28;20035;-77
2022/10/22 03:08:10;;;;;;;2.45;0.40;;;12.90;99.90;;;;;;5090600;28;20181;-74
2022/10/22 03:10:35;;;;;;;1.27;0.60;;;12.90;99.90;;;;;;5090692;28;20035;-75
2022/10/22 03:13:01;;;;;;;5.40;1.27;;;12.80;99.90;;;;;;5073138;28;20031;-75
2022/10/22 03:15:26;;;;;;;4.18;0.30;;;12.80;99.90;;;;;;5090310;28;20842;-75
2022/10/22 03:17:52;;;;;;;0.20;0.20;;;12.90;99.90;;;;;;5092244;28;20040;-74
2022/10/22 03:20:18;;;;;;;1.58;0.52;;;12.80;99.90;;;;;;5086392;28;20103;-73
2022/10/22 03:22:44;;;;;;;1.85;0.50;;;12.80;99.90;;;;;;5090531;28;20028;-74
2022/10/22 03:25:21;;;;;;;1.00;0.60;;;12.80;99.90;;;;;;5090520;28;20476;-74
2022/10/22 03:27:48;;;;;;;3.13;0.40;;;12.80;99.90;;;;;;5091716;28;20028;-74
2022/10/22 03:30:14;;;;;;;3.33;0.60;;;12.70;99.90;;;;;;5089920;28;20109;-75
2022/10/22 03:32:40;;;;;;;1.55;0.60;;;12.70;99.90;;;;;;5091418;28;20099;-76
2022/10/22 03:35:06;;;;;;;4.25;0.80;;;12.80;99.90;;;;;;5090953;28;20024;-75
2022/10/22 03:37:32;;;;;;;2.33;0.70;;;12.80;99.90;;;;;;5085401;28;20028;-76
2022/10/22 03:39:58;;;;;;;2.80;0.40;;;12.80;99.90;;;;;;5090907;28;20047;-76
2022/10/22 03:42:24;;;;;;;2.67;0.40;;;12.80;99.90;;;;;;5091025;28;20095;-75
2022/10/22 03:44:50;;;;;;;4.78;0.38;;;12.70;99.90;;;;;;5090519;28;20024;-76
2022/10/22 03:47:16;;;;;;;0.80;0.47;;;12.80;99.90;;;;;;5090754;28;20031;-74
2022/10/22 03:49:41;;;;;;;2.85;0.40;;;12.80;99.90;;;;;;5090846;28;20123;-75
2022/10/22 03:52:09;;;;;;;1.63;0.40;;;12.80;99.90;;;;;;5087107;28;20036;-75
2022/10/22 03:54:36;;;;;;;0.52;0.45;;;12.80;99.90;;;;;;5079266;28;20024;-76
2022/10/22 03:57:02;;;;;;;0.95;0.35;;;12.80;99.90;;;;;;5090932;28;20396;-76
2022/10/22 03:59:28;;;;;;;1.63;0.50;;;12.90;99.90;;;;;;5093949;28;20043;-76
2022/10/22 04:01:53;;;;;;;1.23;0.45;;;12.90;99.90;;;;;;5093048;28;20036;-74
2022/10/22 04:04:19;;;;;;;0.52;0.32;;;12.90;99.90;;;;;;5092278;28;20051;-75
2022/10/22 04:06:44;;;;;;;0.30;0.20;;;12.90;99.90;;;;;;5093126;28;20078;-75
2022/10/22 04:09:10;;;;;;;0.30;0.30;;;12.90;99.90;;;;;;5093365;28;20465;-74
2022/10/22 04:11:35;;;;;;;2.10;1.10;;;12.90;99.90;;;;;;5082726;28;20043;-75
2022/10/22 04:14:01;;;;;;;3.72;0.50;;;12.90;99.90;;;;;;5084305;28;20032;-74
2022/10/22 04:16:31;;;;;;;0.95;0.38;;;13.00;99.90;;;;;;5085812;28;20401;-74
2022/10/22 04:18:57;;;;;;;1.25;0.35;;;13.00;99.90;;;;;;5091940;28;20028;-75
2022/10/22 04:21:23;;;;;;;1.30;0.30;;;13.10;99.90;;;;;;5074833;28;20036;-75
2022/10/22 04:23:51;;;;;;;1.92;0.40;;;13.10;99.90;;;;;;5077013;28;20073;-74
2022/10/22 04:26:18;;;;;;;3.30;0.40;;;13.00;99.90;;;;;;5093421;28;20036;-75
2022/10/22 04:28:44;;;;;;;1.27;0.40;;;13.10;99.90;;;;;;5087270;28;20047;-75
2022/10/22 04:31:13;;;;;;;0.82;0.45;;;13.10;99.90;;;;;;5094085;28;20047;-74
2022/10/22 04:33:39;;;;;;;0.68;0.50;;;13.10;99.90;;;;;;5094338;28;20020;-74
2022/10/22 04:36:13;;;;;;;2.05;0.40;;;13.10;99.90;;;;;;5093857;28;20376;-74
2022/10/22 04:38:39;;;;;;;2.13;0.57;;;13.00;99.90;;;;;;5094262;28;20055;-74
2022/10/22 04:41:16;;;;;;;2.05;0.50;;;13.00;99.90;;;;;;5093832;28;20512;-74
2022/10/22 04:43:43;;;;;;;1.80;0.40;;;12.90;99.90;;;;;;5091033;28;20027;-74
2022/10/22 04:46:09;;;;;;;2.15;0.60;;;12.90;99.90;;;;;;5093473;28;20461;-74
2022/10/22 04:48:37;;;;;;;1.10;0.20;;;12.90;99.90;;;;;;5093601;28;20042;-75
2022/10/22 04:51:05;;;;;;;0.73;0.20;;;12.90;99.90;;;;;;5093944;28;20039;-75
2022/10/22 04:53:31;;;;;;;1.08;0.40;;;12.80;99.90;;;;;;5093384;28;20047;-75
2022/10/22 04:56:15;;;;;;;1.58;0.50;;;12.80;99.90;;;;;;5093578;28;20149;-75
2022/10/22 04:58:42;;;;;;;0.80;0.20;;;12.80;99.90;;;;;;5076433;28;20133;-74
2022/10/22 05:01:10;;;;;;;1.85;0.50;;;12.80;99.90;;;;;;5093283;28;20036;-75
2022/10/22 05:03:36;;;;;;;2.50;0.40;;;12.80;99.90;;;;;;5093347;28;20547;-74
2022/10/22 05:06:02;;;;;;;0.82;0.40;;;12.90;99.90;;;;;;5093550;28;20103;-74
2022/10/22 05:08:27;;;;;;;2.60;0.30;;;13.00;99.90;;;;;;5093628;28;20158;-74
2022/10/22 05:10:53;;;;;;;3.30;0.38;;;13.10;99.90;;;;;;5087989;28;20066;-74
2022/10/22 05:13:18;;;;;;;3.10;0.60;;;13.10;99.90;;;;;;5093465;28;20480;-73
2022/10/22 05:15:44;;;;;;;0.38;0.38;;;13.10;99.90;;;;;;5084320;28;20032;-74
2022/10/22 05:18:10;;;;;;;0.68;0.32;;;13.10;99.90;;;;;;5093673;28;20030;-74
2022/10/22 05:20:39;;;;;;;2.28;0.40;;;13.10;99.90;;;;;;5092108;28;20020;-73
2022/10/22 05:23:05;;;;;;;1.42;0.50;;;13.20;99.90;;;;;;5094129;28;20028;-74
2022/10/22 05:25:30;;;;;;;0.68;0.30;;;13.20;99.90;;;;;;5092386;28;20361;-74
2022/10/22 05:27:56;;;;;;;2.75;0.30;;;13.20;99.90;;;;;;5072777;28;20036;-74
2022/10/22 05:30:21;;;;;;;3.33;0.40;;;13.30;99.90;;;;;;5091542;28;20077;-73
2022/10/22 05:32:47;;;;;;;4.22;0.40;;;13.30;99.90;;;;;;5082435;28;20035;-74
2022/10/22 05:35:12;;;;;;;0.68;0.35;;;13.30;99.90;;;;;;5093154;28;20531;-74
2022/10/22 05:37:38;;;;;;;2.25;0.40;;;13.30;99.90;;;;;;5093031;28;20124;-73
2022/10/22 05:40:04;;;;;;;2.15;0.50;;;13.20;99.90;;;;;;5093484;28;20063;-73
2022/10/22 05:42:32;;;;;;;1.60;0.60;;;13.20;99.90;;;;;;5092681;28;20032;-73
2022/10/22 05:44:57;;;;;;;1.75;0.50;;;13.20;99.90;;;;;;5092846;28;20066;-74
2022/10/22 05:47:23;;;;;;;5.75;1.70;;;13.10;99.90;;;;;;5092194;28;20051;-74
2022/10/22 05:49:48;;;;;;;3.83;0.50;;;13.00;99.90;;;;;;5078560;28;20036;-73
2022/10/22 05:52:14;;;;;;;0.85;0.43;;;12.90;99.90;;;;;;5087448;28;20036;-73
2022/10/22 05:54:40;;;;;;;1.50;0.50;;;12.90;99.90;;;;;;5085795;28;20481;-74
2022/10/22 05:57:05;;;;;;;3.05;0.55;;;12.90;99.90;;;;;;5090404;28;20056;-74
2022/10/22 05:59:31;;;;;;;1.92;0.65;;;12.90;99.90;;;;;;5087844;28;20031;-74
2022/10/22 06:01:57;;;;;;;5.95;0.50;;;12.90;99.90;;;;;;5090703;28;20123;-74
2022/10/22 06:04:22;;;;;;;1.17;0.40;;;12.90;99.90;;;;;;5087773;28;20038;-74
2022/10/22 06:06:50;;;;;;;1.30;0.38;;;13.00;99.90;;;;;;5091395;28;20481;-75
2022/10/22 06:09:29;;;;;;;0.50;0.50;;;13.00;99.90;;;;;;5090066;28;20028;-74
2022/10/22 06:11:56;;;;;;;2.20;0.50;;;13.00;99.90;;;;;;5090659;28;20027;-74
2022/10/22 06:14:22;;;;;;;2.25;0.30;;;13.10;99.90;;;;;;5090190;28;20028;-74
2022/10/22 06:16:48;;;;;;;1.05;0.70;;;13.00;99.90;;;;;;5091425;28;20023;-74
2022/10/22 06:19:17;;;;;;;2.10;0.40;;;13.00;99.90;;;;;;5089902;28;20027;-72
2022/10/22 06:21:43;;;;;;;6.50;0.52;;;13.10;99.90;;;;;;5090802;28;20028;-68
2022/10/22 06:24:10;;;;;;;1.17;0.35;;;13.10;99.90;;;;;;5081147;28;20385;-66
2022/10/22 06:26:35;;;;;;;0.60;0.30;;;13.10;99.90;;;;;;5089415;28;20095;-67
2022/10/22 06:29:01;;;;;;;2.85;0.50;;;13.20;99.90;;;;;;5083572;28;20185;-67
2022/10/22 06:31:28;;;;;;;2.58;0.40;;;13.20;99.90;;;;;;5090267;28;20530;-67
2022/10/22 06:33:55;;;;;;;3.10;0.40;;;13.30;99.90;;;;;;5081434;28;20056;-67
2022/10/22 06:36:22;;;;;;;0.85;0.20;;;13.30;99.90;;;;;;5089508;28;20028;-67
2022/10/22 06:38:51;;;;;;;1.95;0.20;;;13.30;99.90;;;;;;5088270;28;20059;-67
2022/10/22 06:41:17;;;;;;;0.70;0.28;;;13.40;99.90;;;;;;5089829;28;20056;-68
2022/10/22 06:43:45;;;;;;;0.52;0.30;;;13.50;99.90;;;;;;5088970;28;20031;-67
2022/10/22 06:46:17;;;;;;;0.73;0.38;;;13.60;99.90;;;;;;5089986;28;20457;-67
2022/10/22 06:48:47;;;;;;;1.63;0.60;;;13.60;99.90;;;;;;5075030;28;20066;-67
2022/10/22 06:51:13;;;;;;;0.80;0.28;;;13.70;99.90;;;;;;5084855;28;20474;-66
2022/10/22 06:53:40;;;;;;;0.65;0.47;;;13.80;99.90;;;;;;5083802;28;20074;-68
2022/10/22 06:56:18;;;;;;;0.60;0.30;;;13.90;99.90;;;;;;5085902;28;20036;-67
2022/10/22 06:58:47;;;;;;;0.50;0.38;;;13.90;99.90;;;;;;5073093;28;20437;-67
2022/10/22 07:01:14;;;;;;;27.73;4.13;;;13.90;99.90;;;;;;5086480;28;20128;-68
2022/10/22 07:03:40;;;;;;;16.27;2.78;;;14.00;99.90;;;;;;5086779;28;20048;-67
2022/10/22 07:06:08;;;;;;;7.57;1.30;;;14.10;99.90;;;;;;5087325;28;20469;-68
2022/10/22 07:08:35;;;;;;;5.18;0.60;;;14.20;99.90;;;;;;5071386;28;20050;-68
2022/10/22 07:11:13;;;;;;;4.18;0.77;;;14.30;99.90;;;;;;5084729;28;20078;-67
2022/10/22 07:13:38;;;;;;;4.22;0.98;;;14.40;99.90;;;;;;5072577;28;20623;-67
2022/10/22 07:16:05;;;;;;;3.60;0.88;;;14.40;99.90;;;;;;5085696;28;20032;-67
2022/10/22 07:18:32;;;;;;;2.97;0.90;;;14.40;99.90;;;;;;5084726;28;20024;-68
2022/10/22 07:20:58;;;;;;;1.02;0.50;;;14.30;99.90;;;;;;5086832;28;20035;-67
2022/10/22 07:23:24;;;;;;;5.38;0.73;;;14.40;99.90;;;;;;5082017;28;20025;-67
2022/10/22 07:25:50;;;;;;;2.00;0.55;;;14.40;99.90;;;;;;5087111;28;20103;-65
2022/10/22 07:28:16;;;;;;;6.38;1.15;;;14.40;99.90;;;;;;5087178;28;20349;-67
2022/10/22 07:30:41;;;;;;;2.92;0.70;;;14.40;99.90;;;;;;5086014;28;20055;-67
2022/10/22 07:33:07;;;;;;;3.40;1.02;;;14.40;99.90;;;;;;5083289;28;20126;-67
2022/10/22 07:35:36;;;;;;;5.00;0.55;;;14.40;99.90;;;;;;5084813;28;20047;-67
2022/10/22 07:38:02;;;;;;;2.50;0.80;;;14.50;99.90;;;;;;5088321;28;20036;-67
2022/10/22 07:40:27;;;;;;;3.72;0.80;;;14.60;99.90;;;;;;5088290;28;20262;-67
2022/10/22 07:42:53;;;;;;;3.80;1.02;;;14.40;99.90;;;;;;5089995;28;20024;-68
2022/10/22 07:45:18;;;;;;;2.45;0.70;;;14.40;99.90;;;;;;5084303;28;20035;-68
2022/10/22 07:47:46;;;;;;;4.32;1.02;;;14.30;99.90;;;;;;5090260;28;20081;-67
2022/10/22 07:50:12;;;;;;;1.27;0.70;;;14.30;99.90;;;;;;5086310;28;20059;-66
2022/10/22 07:52:38;;;;;;;3.50;0.75;;;14.20;99.90;;;;;;5087813;28;20024;-67
2022/10/22 07:55:04;;;;;;;2.67;0.80;;;14.30;99.90;;;;;;5086941;28;20036;-65
2022/10/22 07:57:30;;;;;;;3.95;0.77;;;14.30;99.90;;;;;;5089436;28;20507;-67
2022/10/22 07:59:57;;;;;;;7.72;0.98;;;14.20;99.90;;;;;;5088652;28;20026;-67
2022/10/22 08:02:24;;;;;;;1.95;0.93;;;14.20;99.90;;;;;;5069708;28;20089;-76
2022/10/22 08:04:50;;;;;;;0.60;0.55;;;14.30;99.90;;;;;;5081974;28;20039;-74
2022/10/22 08:07:16;;;;;;;0.60;0.43;;;14.40;99.90;;;;;;5086653;28;20119;-70
2022/10/22 08:09:42;;;;;;;4.00;0.90;;;14.40;99.90;;;;;;5087263;28;20044;-70
2022/10/22 08:12:08;;;;;;;3.70;1.42;;;14.40;99.90;;;;;;5090451;28;20043;-70
2022/10/22 08:14:33;;;;;;;3.50;1.05;;;14.50;99.90;;;;;;5082328;28;20028;-74
2022/10/22 08:16:59;;;;;;;2.92;1.30;;;14.60;99.90;;;;;;5084229;28;20061;-80
2022/10/22 08:19:25;;;;;;;5.65;1.13;;;14.70;99.90;;;;;;5087613;28;20107;-73
2022/10/22 08:21:50;;;;;;;8.70;1.48;;;14.80;99.90;;;;;;5089232;28;20024;-79
2022/10/22 08:24:16;;;;;;;15.18;1.50;;;14.80;99.90;;;;;;5088207;28;20472;-77
2022/10/22 08:26:41;;;;;;;7.20;1.40;;;14.90;99.90;;;;;;5089929;28;20024;-78
2022/10/22 08:29:07;;;;;;;7.78;1.45;;;14.90;99.90;;;;;;5082700;28;20114;-78
2022/10/22 08:31:33;;;;;;;6.95;0.93;;;14.90;99.90;;;;;;5089534;28;20025;-74
2022/10/22 08:33:59;;;;;;;10.27;1.88;;;14.90;99.90;;;;;;5088543;28;20115;-74
2022/10/22 08:36:25;;;;;;;9.20;1.02;;;14.90;99.90;;;;;;5089460;28;20703;-76
2022/10/22 08:38:50;;;;;;;25.55;3.22;;;14.90;99.90;;;;;;5082116;28;20461;-68
2022/10/22 08:41:20;;;;;;;10.40;1.00;;;14.90;99.90;;;;;;5089913;28;20064;-71
2022/10/22 08:44:09;;;;;;;5.50;0.93;;;15.00;99.90;;;;;;5078752;28;20032;-70
2022/10/22 08:46:38;;;;;;;0.88;0.60;;;15.10;99.90;;;;;;5080172;28;20665;-68
2022/10/22 08:49:11;;;;;;;1.20;0.55;;;15.10;99.90;;;;;;5079394;28;20052;-75
2022/10/22 08:51:39;;;;;;;2.10;0.70;;;15.30;99.90;;;;;;5085418;28;20027;-74
2022/10/22 08:54:26;;;;;;;0.65;0.63;;;15.40;99.90;;;;;;5072188;28;20024;-72
2022/10/22 08:57:10;;;;;;;1.25;0.73;;;15.50;99.90;;;;;;5090375;28;20086;-73
2022/10/22 08:59:54;;;;;;;7.13;0.70;;;15.50;99.90;;;;;;5081971;28;20052;-68
2022/10/22 09:02:50;;;;;;;0.70;0.70;;;15.70;99.90;;;;;;5083667;28;20024;-75
2022/10/22 09:05:25;;;;;;;1.85;0.93;;;15.80;99.90;;;;;;5082757;28;20090;-72
2022/10/22 09:07:51;;;;;;;1.35;0.98;;;15.90;99.90;;;;;;5087599;28;20036;-73
2022/10/22 09:10:20;;;;;;;2.42;0.70;;;16.00;99.90;;;;;;5084067;28;20060;-76
2022/10/22 09:12:47;;;;;;;2.00;0.80;;;16.10;99.90;;;;;;5087737;28;20086;-68
2022/10/22 09:15:18;;;;;;;2.25;0.60;;;16.20;99.90;;;;;;5084563;28;20116;-70
2022/10/22 09:17:55;;;;;;;1.13;0.52;;;16.30;99.90;;;;;;5086265;28;20039;-70
2022/10/22 09:20:43;;;;;;;1.63;0.70;;;16.40;99.90;;;;;;5092728;28;20028;-71
2022/10/22 09:23:35;;;;;;;2.75;0.50;;;16.50;99.90;;;;;;5093154;28;20059;-71
2022/10/22 09:26:05;;;;;;;1.50;0.70;;;16.80;99.90;;;;;;5090873;28;20492;-73
2022/10/22 09:28:31;;;;;;;3.17;0.70;;;16.90;99.90;;;;;;5091837;28;20036;-77
2022/10/22 09:30:56;;;;;;;2.83;0.70;;;17.10;99.90;;;;;;5093030;28;20274;-72
2022/10/22 09:33:29;;;;;;;1.17;0.60;;;17.20;99.90;;;;;;5092278;28;20460;-69
2022/10/22 09:36:02;;;;;;;1.33;0.70;;;17.30;99.90;;;;;;5093066;28;20028;-72
2022/10/22 09:38:33;;;;;;;1.45;0.43;;;17.40;99.90;;;;;;5091725;28;20050;-75
2022/10/22 09:41:02;;;;;;;1.05;0.50;;;17.50;99.90;;;;;;5092928;28;20247;-84
2022/10/22 09:43:28;;;;;;;4.32;0.70;;;17.60;99.90;;;;;;5092359;28;20028;-81
2022/10/22 09:46:03;;;;;;;1.10;0.63;;;17.80;99.90;;;;;;5093890;28;20473;-81
2022/10/22 09:48:36;;;;;;;2.35;0.70;;;17.80;99.90;;;;;;5092012;28;20032;-76
2022/10/22 09:51:09;;;;;;;1.38;0.40;;;17.90;99.90;;;;;;5088590;28;20036;-73
2022/10/22 09:53:40;;;;;;;3.70;0.90;;;18.00;99.90;;;;;;5089002;28;20032;-70
2022/10/22 09:56:48;;;;;;;2.03;0.50;;;18.00;99.90;;;;;;5092280;28;20020;-74
2022/10/22 09:59:16;;;;;;;0.82;0.45;;;18.20;99.90;;;;;;5027927;28;20048;-73
2022/10/22 10:01:43;;;;;;;0.50;0.50;;;18.30;99.90;;;;;;5087275;28;20024;-72
2022/10/22 10:04:14;;;;;;;3.33;0.80;;;18.30;99.90;;;;;;5080593;28;20543;-71
2022/10/22 10:06:42;;;;;;;2.95;0.70;;;18.40;99.90;;;;;;5087526;28;20085;-69
2022/10/22 10:09:16;;;;;;;1.95;0.47;;;18.40;99.90;;;;;;5086422;28;20477;-70
2022/10/22 10:12:23;;;;;;;1.00;0.45;;;18.50;99.90;;;;;;5090512;28;20088;-70
2022/10/22 10:15:23;;;;;;;3.50;0.70;;;18.60;99.90;;;;;;5062482;28;20036;-69
2022/10/22 10:18:20;;;;;;;2.47;0.70;;;18.70;99.90;;;;;;5092160;28;20473;-69
2022/10/22 10:20:49;;;;;;;1.65;0.60;;;18.80;99.90;;;;;;5091645;28;20103;-69
2022/10/22 10:23:35;;;;;;;1.65;0.57;;;18.90;99.90;;;;;;5086689;28;20090;-69
2022/10/22 10:26:29;;;;;;;2.30;0.80;;;18.90;99.90;;;;;;5088967;28;20028;-69
2022/10/22 10:29:24;;;;;;;1.75;0.70;;;18.90;99.90;;;;;;5091847;28;20132;-69
2022/10/22 10:32:11;;;;;;;0.93;0.50;;;19.10;99.90;;;;;;5091831;28;20055;-72
2022/10/22 10:34:56;;;;;;;1.45;0.40;;;19.10;99.90;;;;;;5091355;28;20031;-70
2022/10/22 10:38:04;;;;;;;1.60;0.43;;;19.20;99.90;;;;;;5091639;28;20493;-69
2022/10/22 10:40:32;;;;;;;1.10;0.50;;;19.30;99.90;;;;;;4998612;28;20030;-69
2022/10/22 10:43:21;;;;;;;0.88;0.52;;;19.30;99.90;;;;;;5075674;28;20461;-69
2022/10/22 10:46:06;;;;;;;1.05;0.60;;;19.40;99.90;;;;;;5091336;28;20035;-69
2022/10/22 10:48:44;;;;;;;1.42;0.90;;;19.50;99.90;;;;;;5085983;28;20028;-69
2022/10/22 10:51:35;;;;;;;1.83;0.45;;;19.70;99.90;;;;;;5076672;28;20029;-69
2022/10/22 10:54:13;;;;;;;2.28;0.82;;;19.80;99.90;;;;;;5071033;28;20373;-70
2022/10/22 10:56:48;;;;;;;1.92;0.80;;;19.90;99.90;;;;;;5068751;28;20026;-68
2022/10/22 10:59:29;;;;;;;2.83;0.60;;;19.90;99.90;;;;;;5063800;28;20028;-69
2022/10/22 11:02:29;;;;;;;5.30;0.82;;;20.00;99.90;;;;;;5063350;28;20028;-69
2022/10/22 11:04:54;;;;;;;;;;;20.00;99.90;;;;;;5059879;28;20024;-69
2022/10/22 11:07:25;;;;;;;1.60;0.60;;;20.20;99.90;;;;;;5067017;28;19911;-69
2022/10/22 11:10:00;;;;;;;2.35;0.82;;;20.20;99.90;;;;;;5062302;28;20456;-69
2022/10/22 11:12:32;;;;;;;2.47;0.68;;;20.30;99.90;;;;;;5062774;28;20031;-69
2022/10/22 11:15:12;;;;;;;3.53;0.82;;;20.30;99.90;;;;;;5062695;28;20032;-69
2022/10/22 11:17:43;;;;;;;1.63;0.77;;;20.30;99.90;;;;;;5060987;28;20029;-69
2022/10/22 11:20:11;;;;;;;2.63;0.80;;;20.20;99.90;;;;;;5061807;28;20033;-69
2022/10/22 11:22:45;;;;;;;2.67;0.50;;;20.10;99.90;;;;;;5068182;28;20023;-70
2022/10/22 11:25:29;;;;;;;1.48;0.70;;;20.10;99.90;;;;;;5065322;28;20406;-70
2022/10/22 11:28:16;;;;;;;1.63;0.50;;;20.20;99.90;;;;;;5061119;28;20037;-70
2022/10/22 11:30:47;;;;;;;7.45;0.65;;;20.20;99.90;;;;;;5063734;28;20838;-69
2022/10/22 11:33:17;;;;;;;2.00;0.65;;;20.30;99.90;;;;;;5062839;28;20028;-69
2022/10/22 11:35:43;;;;;;;;;;;20.30;99.90;;;;;;5048579;28;20687;-68
2022/10/22 11:38:14;;;;;;;1.52;0.60;;;20.30;99.90;;;;;;5062584;28;20269;-69
2022/10/22 11:41:00;;;;;;;1.75;0.60;;;20.30;99.90;;;;;;5065753;28;20028;-69
2022/10/22 11:43:30;;;;;;;3.15;0.85;;;20.40;99.90;;;;;;5061085;28;20027;-67
2022/10/22 11:46:00;;;;;;;4.20;0.60;;;20.50;99.90;;;;;;5067147;28;21295;-68
2022/10/22 11:48:28;;;;;;;1.98;0.60;;;20.70;99.90;;;;;;5063298;28;20373;-68
2022/10/22 11:50:59;;;;;;;4.05;0.77;;;20.90;99.90;;;;;;5085542;28;20461;-68
2022/10/22 11:53:25;;;;;;;4.20;0.73;;;21.00;99.90;;;;;;5084458;28;20016;-68
2022/10/22 11:55:54;;;;;;;2.45;0.65;;;;;;;;;;5080196;28;20029;-69
2022/10/22 11:58:26;;;;;;;2.07;0.63;;;;;;;;;;5088772;28;20391;-69
2022/10/22 12:00:53;;;;;;;7.30;1.13;;;21.10;99.90;;;;;;5086661;28;20031;-68
2022/10/22 12:03:42;;;;;;;4.05;0.73;;;21.20;99.90;;;;;;5083519;28;20032;-68
2022/10/22 12:06:11;;;;;;;10.27;2.40;;;21.20;99.90;;;;;;5079462;28;20028;-73
2022/10/22 12:08:51;;;;;;;22.02;3.83;;;21.00;99.90;;;;;;5074044;28;20123;-73
2022/10/22 12:11:35;;;;;;;4.00;0.90;;;20.90;99.90;;;;;;5087276;28;20121;-72
2022/10/22 12:14:02;;;;;;;9.95;1.30;;;20.90;99.90;;;;;;5079029;28;20064;-72
2022/10/22 12:16:36;;;;;;;2.97;0.80;;;21.40;99.90;;;;;;5086839;28;20036;-69
2022/10/22 12:19:14;;;;;;;2.00;0.77;;;21.70;99.90;;;;;;5080753;28;20036;-74
2022/10/22 12:21:43;;;;;;;1.95;0.82;;;22.00;99.90;;;;;;5083808;28;20084;-65
2022/10/22 12:24:18;;;;;;;2.75;0.75;;;22.30;99.90;;;;;;5082637;28;20035;-71
2022/10/22 12:26:44;;;;;;;4.25;1.00;;;22.50;99.90;;;;;;5086017;28;20254;-72
2022/10/22 12:29:13;;;;;;;2.80;0.93;;;22.60;99.90;;;;;;5081278;28;20041;-68
2022/10/22 12:31:41;;;;;;;2.65;1.10;;;23.00;99.90;;;;;;5087938;28;20119;-69
2022/10/22 12:34:09;;;;;;;5.85;1.90;;;23.30;99.80;;;;;;5089260;28;20218;-69
2022/10/22 12:36:35;;;;;;;6.25;1.40;;;23.50;99.70;;;;;;5082746;28;20039;-69
2022/10/22 12:39:03;;;;;;;3.08;1.40;;;23.90;98.50;;;;;;5089587;28;20385;-69
2022/10/22 12:41:34;;;;;;;3.20;1.17;;;24.00;97.50;;;;;;5089092;28;20115;-69
2022/10/22 12:44:00;;;;;;;2.03;0.93;;;24.20;97.30;;;;;;5093664;28;20504;-69
2022/10/22 12:46:29;;;;;;;1.52;0.75;;;24.40;97.30;;;;;;5093942;28;20496;-68
2022/10/22 12:48:58;;;;;;;4.10;0.98;;;24.60;96.10;;;;;;5092915;28;20102;-70
2022/10/22 12:51:24;;;;;;;1.42;0.60;;;24.40;96.00;;;;;;5094192;28;20077;-69
2022/10/22 12:53:54;;;;;;;4.22;0.68;;;24.20;95.60;;;;;;5091793;28;20024;-68
2022/10/22 12:56:25;;;;;;;0.75;0.60;;;24.10;95.60;;;;;;5094113;28;20028;-68
2022/10/22 12:59:24;;;;;;;3.28;0.85;;;24.20;96.00;;;;;;5093165;28;20027;-69
2022/10/22 13:01:51;;;;;;;3.78;0.93;;;24.40;95.70;;;;;;5081957;28;20047;-68
2022/10/22 13:04:30;;;;;;;1.77;0.60;;;24.70;94.50;;;;;;5093055;28;20028;-69
2022/10/22 13:07:14;;;;;;;4.40;0.93;;;24.70;93.30;;;;;;5088844;28;20162;-69